sensor_id;sensor_type;location;lat;lon;timestamp;P1;durP1;ratioP1;P2;durP2;ratioP2
74677;SDS011;63207;56.328;43.994;2022-12-24T00:00:29;1.90;;;1.60;;
74677;SDS011;63207;56.328;43.994;2022-12-24T00:02:55;2.00;;;1.73;;
74677;SDS011;63207;56.328;43.994;2022-12-24T00:05:21;2.00;;;1.70;;
74677;SDS011;63207;56.328;43.994;2022-12-24T00:07:47;2.03;;;1.70;;
74677;SDS011;63207;56.328;43.994;2022-12-24T00:10:12;2.40;;;1.77;;
74677;SDS011;63207;56.328;43.994;2022-12-24T00:12:38;2.00;;;1.65;;
74677;SDS011;63207;56.328;43.994;2022-12-24T00:15:06;2.33;;;1.90;;
74677;SDS011;63207;56.328;43.994;2022-12-24T00:17:33;2.30;;;1.77;;
74677;SDS011;63207;56.328;43.994;2022-12-24T00:19:59;2.28;;;1.90;;
74677;SDS011;63207;56.328;43.994;2022-12-24T00:22:25;1.98;;;1.70;;
74677;SDS011;63207;56.328;43.994;2022-12-24T00:24:50;2.67;;;1.90;;
74677;SDS011;63207;56.328;43.994;2022-12-24T00:27:16;3.20;;;2.30;;
74677;SDS011;63207;56.328;43.994;2022-12-24T00:29:42;2.20;;;1.70;;
74677;SDS011;63207;56.328;43.994;2022-12-24T00:32:08;2.55;;;1.90;;
74677;SDS011;63207;56.328;43.994;2022-12-24T00:34:35;2.22;;;1.70;;
74677;SDS011;63207;56.328;43.994;2022-12-24T00:37:04;2.65;;;1.80;;
74677;SDS011;63207;56.328;43.994;2022-12-24T00:39:31;2.13;;;1.70;;
74677;SDS011;63207;56.328;43.994;2022-12-24T00:41:57;2.47;;;1.83;;
74677;SDS011;63207;56.328;43.994;2022-12-24T00:44:23;2.35;;;1.90;;
74677;SDS011;63207;56.328;43.994;2022-12-24T00:46:48;2.72;;;2.00;;
74677;SDS011;63207;56.328;43.994;2022-12-24T00:49:15;2.05;;;1.85;;
74677;SDS011;63207;56.328;43.994;2022-12-24T00:51:41;2.45;;;1.83;;
74677;SDS011;63207;56.328;43.994;2022-12-24T00:54:07;2.28;;;1.75;;
74677;SDS011;63207;56.328;43.994;2022-12-24T00:56:33;1.80;;;1.50;;
74677;SDS011;63207;56.328;43.994;2022-12-24T00:58:59;2.25;;;1.73;;
74677;SDS011;63207;56.328;43.994;2022-12-24T01:01:25;2.10;;;1.90;;
74677;SDS011;63207;56.328;43.994;2022-12-24T01:03:52;2.08;;;1.80;;
74677;SDS011;63207;56.328;43.994;2022-12-24T01:06:38;2.15;;;1.60;;
74677;SDS011;63207;56.328;43.994;2022-12-24T01:09:04;2.05;;;1.65;;
74677;SDS011;63207;56.328;43.994;2022-12-24T01:11:30;2.40;;;2.20;;
74677;SDS011;63207;56.328;43.994;2022-12-24T01:13:56;2.25;;;1.77;;
74677;SDS011;63207;56.328;43.994;2022-12-24T01:16:22;2.10;;;1.77;;
74677;SDS011;63207;56.328;43.994;2022-12-24T01:18:48;2.83;;;1.92;;
74677;SDS011;63207;56.328;43.994;2022-12-24T01:21:32;2.10;;;1.83;;
74677;SDS011;63207;56.328;43.994;2022-12-24T01:23:58;2.35;;;1.80;;
74677;SDS011;63207;56.328;43.994;2022-12-24T01:26:24;2.20;;;1.80;;
74677;SDS011;63207;56.328;43.994;2022-12-24T01:28:50;2.55;;;1.70;;
74677;SDS011;63207;56.328;43.994;2022-12-24T01:31:34;2.38;;;1.80;;
74677;SDS011;63207;56.328;43.994;2022-12-24T01:34:00;2.20;;;1.70;;
74677;SDS011;63207;56.328;43.994;2022-12-24T01:36:26;3.00;;;2.00;;
74677;SDS011;63207;56.328;43.994;2022-12-24T01:38:51;2.38;;;1.80;;
74677;SDS011;63207;56.328;43.994;2022-12-24T01:41:36;2.53;;;1.80;;
74677;SDS011;63207;56.328;43.994;2022-12-24T01:49:36;1.90;;;1.70;;
74677;SDS011;63207;56.328;43.994;2022-12-24T01:52:14;2.38;;;1.90;;
74677;SDS011;63207;56.328;43.994;2022-12-24T01:54:44;2.60;;;1.90;;
74677;SDS011;63207;56.328;43.994;2022-12-24T01:57:18;2.20;;;1.70;;
74677;SDS011;63207;56.328;43.994;2022-12-24T01:59:48;2.70;;;1.80;;
74677;SDS011;63207;56.328;43.994;2022-12-24T02:02:18;2.10;;;1.63;;
74677;SDS011;63207;56.328;43.994;2022-12-24T02:04:49;3.03;;;2.08;;
74677;SDS011;63207;56.328;43.994;2022-12-24T02:07:20;2.20;;;1.80;;
74677;SDS011;63207;56.328;43.994;2022-12-24T02:09:46;2.13;;;1.63;;
74677;SDS011;63207;56.328;43.994;2022-12-24T02:12:17;2.50;;;1.95;;
74677;SDS011;63207;56.328;43.994;2022-12-24T02:14:43;2.33;;;1.90;;
74677;SDS011;63207;56.328;43.994;2022-12-24T02:17:30;2.10;;;1.73;;
74677;SDS011;63207;56.328;43.994;2022-12-24T02:29:06;2.53;;;1.92;;
74677;SDS011;63207;56.328;43.994;2022-12-24T02:31:36;2.13;;;1.77;;
74677;SDS011;63207;56.328;43.994;2022-12-24T02:37:02;2.45;;;1.98;;
74677;SDS011;63207;56.328;43.994;2022-12-24T02:39:42;2.20;;;1.83;;
74677;SDS011;63207;56.328;43.994;2022-12-24T02:42:17;2.28;;;1.83;;
74677;SDS011;63207;56.328;43.994;2022-12-24T02:44:49;2.40;;;1.73;;
74677;SDS011;63207;56.328;43.994;2022-12-24T02:47:20;2.42;;;1.85;;
74677;SDS011;63207;56.328;43.994;2022-12-24T02:49:50;2.05;;;1.70;;
74677;SDS011;63207;56.328;43.994;2022-12-24T02:52:29;2.63;;;1.90;;
74677;SDS011;63207;56.328;43.994;2022-12-24T02:55:00;2.22;;;1.77;;
74677;SDS011;63207;56.328;43.994;2022-12-24T02:57:43;2.20;;;1.90;;
74677;SDS011;63207;56.328;43.994;2022-12-24T03:01:21;2.15;;;1.63;;
74677;SDS011;63207;56.328;43.994;2022-12-24T03:03:58;2.50;;;1.80;;
74677;SDS011;63207;56.328;43.994;2022-12-24T03:06:37;2.20;;;1.80;;
74677;SDS011;63207;56.328;43.994;2022-12-24T03:09:24;2.35;;;1.77;;
74677;SDS011;63207;56.328;43.994;2022-12-24T03:12:14;1.92;;;1.58;;
74677;SDS011;63207;56.328;43.994;2022-12-24T03:14:53;2.22;;;1.75;;
74677;SDS011;63207;56.328;43.994;2022-12-24T03:17:19;2.00;;;1.60;;
74677;SDS011;63207;56.328;43.994;2022-12-24T03:19:46;2.20;;;2.00;;
74677;SDS011;63207;56.328;43.994;2022-12-24T03:22:12;2.65;;;1.80;;
74677;SDS011;63207;56.328;43.994;2022-12-24T03:24:40;2.00;;;1.67;;
74677;SDS011;63207;56.328;43.994;2022-12-24T03:27:25;2.05;;;1.70;;
74677;SDS011;63207;56.328;43.994;2022-12-24T03:29:53;2.20;;;1.60;;
74677;SDS011;63207;56.328;43.994;2022-12-24T03:32:29;1.83;;;1.60;;
74677;SDS011;63207;56.328;43.994;2022-12-24T03:34:57;2.03;;;1.60;;
74677;SDS011;63207;56.328;43.994;2022-12-24T03:37:23;2.28;;;1.80;;
74677;SDS011;63207;56.328;43.994;2022-12-24T03:39:50;2.33;;;1.83;;
74677;SDS011;63207;56.328;43.994;2022-12-24T03:42:16;2.42;;;1.90;;
74677;SDS011;63207;56.328;43.994;2022-12-24T03:44:41;2.28;;;1.77;;
74677;SDS011;63207;56.328;43.994;2022-12-24T03:47:07;1.98;;;1.70;;
74677;SDS011;63207;56.328;43.994;2022-12-24T03:49:33;2.47;;;2.00;;
74677;SDS011;63207;56.328;43.994;2022-12-24T03:51:59;2.17;;;1.90;;
74677;SDS011;63207;56.328;43.994;2022-12-24T03:54:25;2.05;;;1.67;;
74677;SDS011;63207;56.328;43.994;2022-12-24T03:56:50;2.30;;;1.90;;
74677;SDS011;63207;56.328;43.994;2022-12-24T03:59:16;2.30;;;1.90;;
74677;SDS011;63207;56.328;43.994;2022-12-24T04:01:42;2.10;;;1.73;;
74677;SDS011;63207;56.328;43.994;2022-12-24T04:04:08;2.40;;;2.00;;
74677;SDS011;63207;56.328;43.994;2022-12-24T04:06:34;2.28;;;1.70;;
74677;SDS011;63207;56.328;43.994;2022-12-24T04:09:00;1.88;;;1.52;;
74677;SDS011;63207;56.328;43.994;2022-12-24T04:11:29;2.95;;;1.90;;
74677;SDS011;63207;56.328;43.994;2022-12-24T04:13:56;2.22;;;1.80;;
74677;SDS011;63207;56.328;43.994;2022-12-24T04:16:22;2.03;;;1.70;;
74677;SDS011;63207;56.328;43.994;2022-12-24T04:18:48;2.30;;;1.83;;
74677;SDS011;63207;56.328;43.994;2022-12-24T04:21:14;2.15;;;1.80;;
74677;SDS011;63207;56.328;43.994;2022-12-24T04:23:40;2.28;;;1.70;;
74677;SDS011;63207;56.328;43.994;2022-12-24T04:26:07;2.78;;;2.10;;
74677;SDS011;63207;56.328;43.994;2022-12-24T04:28:35;2.60;;;1.80;;
74677;SDS011;63207;56.328;43.994;2022-12-24T04:31:02;2.40;;;1.65;;
74677;SDS011;63207;56.328;43.994;2022-12-24T04:33:33;2.10;;;1.80;;
74677;SDS011;63207;56.328;43.994;2022-12-24T04:36:00;2.25;;;1.80;;
74677;SDS011;63207;56.328;43.994;2022-12-24T04:38:27;2.17;;;1.80;;
74677;SDS011;63207;56.328;43.994;2022-12-24T04:40:59;2.15;;;1.63;;
74677;SDS011;63207;56.328;43.994;2022-12-24T04:43:27;2.20;;;1.80;;
74677;SDS011;63207;56.328;43.994;2022-12-24T04:45:53;2.42;;;1.88;;
74677;SDS011;63207;56.328;43.994;2022-12-24T04:48:19;2.28;;;1.90;;
74677;SDS011;63207;56.328;43.994;2022-12-24T04:50:45;2.55;;;1.90;;
74677;SDS011;63207;56.328;43.994;2022-12-24T04:53:11;2.00;;;1.75;;
74677;SDS011;63207;56.328;43.994;2022-12-24T04:55:45;2.15;;;1.80;;
74677;SDS011;63207;56.328;43.994;2022-12-24T04:58:11;2.40;;;1.90;;
74677;SDS011;63207;56.328;43.994;2022-12-24T05:00:37;2.05;;;1.40;;
74677;SDS011;63207;56.328;43.994;2022-12-24T05:03:04;2.33;;;1.83;;
74677;SDS011;63207;56.328;43.994;2022-12-24T05:05:30;2.55;;;1.83;;
74677;SDS011;63207;56.328;43.994;2022-12-24T05:07:56;2.67;;;1.90;;
74677;SDS011;63207;56.328;43.994;2022-12-24T05:10:22;1.88;;;1.60;;
74677;SDS011;63207;56.328;43.994;2022-12-24T05:13:06;2.30;;;1.83;;
74677;SDS011;63207;56.328;43.994;2022-12-24T05:15:32;2.08;;;1.70;;
74677;SDS011;63207;56.328;43.994;2022-12-24T05:17:58;2.60;;;1.92;;
74677;SDS011;63207;56.328;43.994;2022-12-24T05:20:23;2.47;;;2.05;;
74677;SDS011;63207;56.328;43.994;2022-12-24T05:22:49;2.08;;;1.80;;
74677;SDS011;63207;56.328;43.994;2022-12-24T05:25:35;2.55;;;1.80;;
74677;SDS011;63207;56.328;43.994;2022-12-24T05:28:22;2.53;;;1.98;;
74677;SDS011;63207;56.328;43.994;2022-12-24T05:30:49;2.03;;;1.75;;
74677;SDS011;63207;56.328;43.994;2022-12-24T05:33:15;2.40;;;1.80;;
74677;SDS011;63207;56.328;43.994;2022-12-24T05:35:41;2.42;;;2.10;;
74677;SDS011;63207;56.328;43.994;2022-12-24T05:38:07;2.40;;;1.85;;
74677;SDS011;63207;56.328;43.994;2022-12-24T05:40:33;2.33;;;1.80;;
74677;SDS011;63207;56.328;43.994;2022-12-24T05:42:59;2.28;;;1.65;;
74677;SDS011;63207;56.328;43.994;2022-12-24T05:45:24;2.38;;;1.75;;
74677;SDS011;63207;56.328;43.994;2022-12-24T05:47:50;2.00;;;1.70;;
74677;SDS011;63207;56.328;43.994;2022-12-24T05:50:16;2.10;;;1.80;;
74677;SDS011;63207;56.328;43.994;2022-12-24T05:52:42;2.25;;;1.85;;
74677;SDS011;63207;56.328;43.994;2022-12-24T05:55:08;2.25;;;1.98;;
74677;SDS011;63207;56.328;43.994;2022-12-24T05:57:34;2.45;;;1.70;;
74677;SDS011;63207;56.328;43.994;2022-12-24T06:00:00;2.03;;;1.75;;
74677;SDS011;63207;56.328;43.994;2022-12-24T06:02:26;2.22;;;1.90;;
74677;SDS011;63207;56.328;43.994;2022-12-24T06:04:51;2.15;;;1.70;;
74677;SDS011;63207;56.328;43.994;2022-12-24T06:07:17;2.40;;;1.90;;
74677;SDS011;63207;56.328;43.994;2022-12-24T06:09:43;2.40;;;2.00;;
74677;SDS011;63207;56.328;43.994;2022-12-24T06:12:09;2.20;;;1.80;;
74677;SDS011;63207;56.328;43.994;2022-12-24T06:14:35;2.15;;;1.73;;
74677;SDS011;63207;56.328;43.994;2022-12-24T06:17:00;2.22;;;1.90;;
74677;SDS011;63207;56.328;43.994;2022-12-24T06:19:26;2.40;;;2.00;;
74677;SDS011;63207;56.328;43.994;2022-12-24T06:21:52;2.28;;;1.92;;
74677;SDS011;63207;56.328;43.994;2022-12-24T06:24:18;2.65;;;2.00;;
74677;SDS011;63207;56.328;43.994;2022-12-24T06:26:44;2.00;;;1.80;;
74677;SDS011;63207;56.328;43.994;2022-12-24T06:29:09;2.05;;;1.60;;
74677;SDS011;63207;56.328;43.994;2022-12-24T06:31:35;2.33;;;1.88;;
74677;SDS011;63207;56.328;43.994;2022-12-24T06:34:01;2.50;;;1.88;;
74677;SDS011;63207;56.328;43.994;2022-12-24T06:36:27;2.47;;;1.80;;
74677;SDS011;63207;56.328;43.994;2022-12-24T06:41:37;2.00;;;1.65;;
74677;SDS011;63207;56.328;43.994;2022-12-24T06:44:03;2.20;;;1.73;;
74677;SDS011;63207;56.328;43.994;2022-12-24T06:46:29;1.92;;;1.65;;
74677;SDS011;63207;56.328;43.994;2022-12-24T06:48:55;2.38;;;1.88;;
74677;SDS011;63207;56.328;43.994;2022-12-24T06:54:05;2.38;;;1.85;;
74677;SDS011;63207;56.328;43.994;2022-12-24T06:56:31;2.38;;;1.83;;
74677;SDS011;63207;56.328;43.994;2022-12-24T06:58:57;1.80;;;1.60;;
74677;SDS011;63207;56.328;43.994;2022-12-24T07:01:23;2.08;;;1.60;;
74677;SDS011;63207;56.328;43.994;2022-12-24T07:03:49;2.55;;;1.80;;
74677;SDS011;63207;56.328;43.994;2022-12-24T07:06:32;2.22;;;1.88;;
74677;SDS011;63207;56.328;43.994;2022-12-24T07:08:58;2.35;;;1.80;;
74677;SDS011;63207;56.328;43.994;2022-12-24T07:11:25;1.90;;;1.60;;
74677;SDS011;63207;56.328;43.994;2022-12-24T07:13:51;2.20;;;1.77;;
74677;SDS011;63207;56.328;43.994;2022-12-24T07:16:17;2.47;;;1.65;;
74677;SDS011;63207;56.328;43.994;2022-12-24T07:18:43;2.92;;;1.83;;
74677;SDS011;63207;56.328;43.994;2022-12-24T07:21:09;2.08;;;1.80;;
74677;SDS011;63207;56.328;43.994;2022-12-24T07:23:35;2.05;;;1.77;;
74677;SDS011;63207;56.328;43.994;2022-12-24T07:26:02;3.00;;;1.60;;
74677;SDS011;63207;56.328;43.994;2022-12-24T07:28:29;1.90;;;1.55;;
74677;SDS011;63207;56.328;43.994;2022-12-24T07:30:55;2.17;;;1.80;;
74677;SDS011;63207;56.328;43.994;2022-12-24T07:33:22;1.80;;;1.60;;
74677;SDS011;63207;56.328;43.994;2022-12-24T07:35:56;2.30;;;1.83;;
74677;SDS011;63207;56.328;43.994;2022-12-24T07:38:23;2.53;;;1.90;;
74677;SDS011;63207;56.328;43.994;2022-12-24T07:40:49;2.40;;;1.70;;
74677;SDS011;63207;56.328;43.994;2022-12-24T07:43:15;1.95;;;1.70;;
74677;SDS011;63207;56.328;43.994;2022-12-24T07:45:40;2.30;;;1.80;;
74677;SDS011;63207;56.328;43.994;2022-12-24T07:48:07;2.50;;;1.70;;
74677;SDS011;63207;56.328;43.994;2022-12-24T07:50:33;2.15;;;1.70;;
74677;SDS011;63207;56.328;43.994;2022-12-24T07:52:58;2.10;;;1.80;;
74677;SDS011;63207;56.328;43.994;2022-12-24T07:55:24;2.08;;;1.65;;
74677;SDS011;63207;56.328;43.994;2022-12-24T07:57:50;2.25;;;1.90;;
74677;SDS011;63207;56.328;43.994;2022-12-24T08:00:16;2.28;;;1.90;;
74677;SDS011;63207;56.328;43.994;2022-12-24T08:02:42;2.85;;;2.05;;
74677;SDS011;63207;56.328;43.994;2022-12-24T08:05:08;2.30;;;2.00;;
74677;SDS011;63207;56.328;43.994;2022-12-24T08:07:34;2.33;;;1.70;;
74677;SDS011;63207;56.328;43.994;2022-12-24T08:10:00;2.63;;;1.92;;
74677;SDS011;63207;56.328;43.994;2022-12-24T08:12:26;2.40;;;1.90;;
74677;SDS011;63207;56.328;43.994;2022-12-24T08:14:51;2.30;;;1.90;;
74677;SDS011;63207;56.328;43.994;2022-12-24T08:17:36;2.30;;;1.95;;
74677;SDS011;63207;56.328;43.994;2022-12-24T08:20:02;2.58;;;1.90;;
74677;SDS011;63207;56.328;43.994;2022-12-24T08:22:29;1.85;;;1.70;;
74677;SDS011;63207;56.328;43.994;2022-12-24T08:24:55;2.50;;;1.92;;
74677;SDS011;63207;56.328;43.994;2022-12-24T08:27:21;2.25;;;1.70;;
74677;SDS011;63207;56.328;43.994;2022-12-24T08:29:47;1.83;;;1.58;;
74677;SDS011;63207;56.328;43.994;2022-12-24T08:32:13;2.47;;;1.80;;
74677;SDS011;63207;56.328;43.994;2022-12-24T08:34:38;2.75;;;1.98;;
74677;SDS011;63207;56.328;43.994;2022-12-24T08:37:05;2.47;;;1.92;;
74677;SDS011;63207;56.328;43.994;2022-12-24T08:39:30;1.92;;;1.73;;
74677;SDS011;63207;56.328;43.994;2022-12-24T08:41:56;2.20;;;1.77;;
74677;SDS011;63207;56.328;43.994;2022-12-24T08:44:22;2.55;;;1.98;;
74677;SDS011;63207;56.328;43.994;2022-12-24T08:46:48;2.05;;;1.70;;
74677;SDS011;63207;56.328;43.994;2022-12-24T08:49:14;2.63;;;1.98;;
74677;SDS011;63207;56.328;43.994;2022-12-24T08:51:40;2.38;;;1.70;;
74677;SDS011;63207;56.328;43.994;2022-12-24T08:54:06;2.25;;;1.80;;
74677;SDS011;63207;56.328;43.994;2022-12-24T08:56:32;2.22;;;1.88;;
74677;SDS011;63207;56.328;43.994;2022-12-24T08:58:59;2.67;;;1.95;;
74677;SDS011;63207;56.328;43.994;2022-12-24T09:01:25;1.80;;;1.60;;
74677;SDS011;63207;56.328;43.994;2022-12-24T09:03:51;2.20;;;1.85;;
74677;SDS011;63207;56.328;43.994;2022-12-24T09:06:17;2.53;;;1.85;;
74677;SDS011;63207;56.328;43.994;2022-12-24T09:08:43;2.65;;;2.03;;
74677;SDS011;63207;56.328;43.994;2022-12-24T09:11:10;2.30;;;1.80;;
74677;SDS011;63207;56.328;43.994;2022-12-24T09:13:39;2.30;;;1.88;;
74677;SDS011;63207;56.328;43.994;2022-12-24T09:16:06;2.45;;;1.90;;
74677;SDS011;63207;56.328;43.994;2022-12-24T09:18:32;2.38;;;1.88;;
74677;SDS011;63207;56.328;43.994;2022-12-24T09:21:03;2.15;;;1.75;;
74677;SDS011;63207;56.328;43.994;2022-12-24T09:23:30;2.63;;;1.90;;
74677;SDS011;63207;56.328;43.994;2022-12-24T09:25:58;2.45;;;1.80;;
74677;SDS011;63207;56.328;43.994;2022-12-24T09:28:24;2.13;;;1.70;;
74677;SDS011;63207;56.328;43.994;2022-12-24T09:30:56;2.17;;;1.70;;
74677;SDS011;63207;56.328;43.994;2022-12-24T09:33:23;2.33;;;1.90;;
74677;SDS011;63207;56.328;43.994;2022-12-24T09:35:50;2.92;;;2.13;;
74677;SDS011;63207;56.328;43.994;2022-12-24T09:38:17;2.88;;;1.92;;
74677;SDS011;63207;56.328;43.994;2022-12-24T09:40:44;2.47;;;1.70;;
74677;SDS011;63207;56.328;43.994;2022-12-24T09:43:16;2.10;;;1.63;;
74677;SDS011;63207;56.328;43.994;2022-12-24T09:48:50;2.50;;;2.00;;
74677;SDS011;63207;56.328;43.994;2022-12-24T09:51:39;2.08;;;1.75;;
74677;SDS011;63207;56.328;43.994;2022-12-24T09:54:12;2.35;;;1.80;;
74677;SDS011;63207;56.328;43.994;2022-12-24T09:56:44;2.20;;;1.95;;
74677;SDS011;63207;56.328;43.994;2022-12-24T09:59:16;2.40;;;1.73;;
74677;SDS011;63207;56.328;43.994;2022-12-24T10:01:50;2.60;;;1.60;;
74677;SDS011;63207;56.328;43.994;2022-12-24T10:04:19;2.58;;;1.95;;
74677;SDS011;63207;56.328;43.994;2022-12-24T10:17:38;3.05;;;1.98;;
74677;SDS011;63207;56.328;43.994;2022-12-24T10:20:21;2.03;;;1.63;;
74677;SDS011;63207;56.328;43.994;2022-12-24T10:22:59;2.30;;;1.80;;
74677;SDS011;63207;56.328;43.994;2022-12-24T10:28:20;2.28;;;1.90;;
74677;SDS011;63207;56.328;43.994;2022-12-24T10:30:50;2.20;;;1.80;;
74677;SDS011;63207;56.328;43.994;2022-12-24T10:33:44;2.40;;;1.90;;
74677;SDS011;63207;56.328;43.994;2022-12-24T10:36:16;1.90;;;1.70;;
74677;SDS011;63207;56.328;43.994;2022-12-24T10:38:45;2.63;;;1.90;;
74677;SDS011;63207;56.328;43.994;2022-12-24T10:41:11;2.10;;;1.75;;
74677;SDS011;63207;56.328;43.994;2022-12-24T10:43:57;2.58;;;2.00;;
74677;SDS011;63207;56.328;43.994;2022-12-24T10:46:37;2.40;;;2.03;;
74677;SDS011;63207;56.328;43.994;2022-12-24T10:49:05;2.40;;;1.80;;
74677;SDS011;63207;56.328;43.994;2022-12-24T10:56:43;2.28;;;1.80;;
74677;SDS011;63207;56.328;43.994;2022-12-24T10:59:21;3.03;;;2.15;;
74677;SDS011;63207;56.328;43.994;2022-12-24T11:01:50;2.60;;;1.80;;
74677;SDS011;63207;56.328;43.994;2022-12-24T11:04:17;2.80;;;1.95;;
74677;SDS011;63207;56.328;43.994;2022-12-24T11:07:09;2.35;;;1.90;;
74677;SDS011;63207;56.328;43.994;2022-12-24T11:09:35;2.42;;;1.80;;
74677;SDS011;63207;56.328;43.994;2022-12-24T11:15:31;2.80;;;1.85;;
74677;SDS011;63207;56.328;43.994;2022-12-24T11:18:05;2.42;;;1.88;;
74677;SDS011;63207;56.328;43.994;2022-12-24T11:20:38;2.60;;;1.77;;
74677;SDS011;63207;56.328;43.994;2022-12-24T11:23:05;2.53;;;2.00;;
74677;SDS011;63207;56.328;43.994;2022-12-24T11:25:41;2.38;;;1.92;;
74677;SDS011;63207;56.328;43.994;2022-12-24T11:28:20;2.65;;;1.95;;
74677;SDS011;63207;56.328;43.994;2022-12-24T11:31:04;2.20;;;1.80;;
74677;SDS011;63207;56.328;43.994;2022-12-24T11:33:49;2.03;;;1.70;;
74677;SDS011;63207;56.328;43.994;2022-12-24T11:36:19;2.33;;;1.90;;
74677;SDS011;63207;56.328;43.994;2022-12-24T11:38:56;2.20;;;1.73;;
74677;SDS011;63207;56.328;43.994;2022-12-24T11:41:23;2.45;;;2.00;;
74677;SDS011;63207;56.328;43.994;2022-12-24T11:43:51;2.13;;;1.92;;
74677;SDS011;63207;56.328;43.994;2022-12-24T11:46:38;2.28;;;2.00;;
74677;SDS011;63207;56.328;43.994;2022-12-24T11:51:45;2.25;;;1.65;;
74677;SDS011;63207;56.328;43.994;2022-12-24T11:57:15;3.05;;;2.00;;
74677;SDS011;63207;56.328;43.994;2022-12-24T11:59:46;3.63;;;2.30;;
74677;SDS011;63207;56.328;43.994;2022-12-24T12:05:20;3.13;;;1.95;;
74677;SDS011;63207;56.328;43.994;2022-12-24T12:07:51;2.20;;;1.85;;
74677;SDS011;63207;56.328;43.994;2022-12-24T12:10:23;3.15;;;2.08;;
74677;SDS011;63207;56.328;43.994;2022-12-24T12:12:58;2.47;;;1.83;;
74677;SDS011;63207;56.328;43.994;2022-12-24T12:15:44;2.10;;;1.80;;
74677;SDS011;63207;56.328;43.994;2022-12-24T12:18:15;2.70;;;1.80;;
74677;SDS011;63207;56.328;43.994;2022-12-24T12:20:50;3.38;;;1.98;;
74677;SDS011;63207;56.328;43.994;2022-12-24T12:23:28;2.60;;;2.10;;
74677;SDS011;63207;56.328;43.994;2022-12-24T12:26:06;3.40;;;2.00;;
74677;SDS011;63207;56.328;43.994;2022-12-24T12:28:57;2.55;;;1.80;;
74677;SDS011;63207;56.328;43.994;2022-12-24T12:31:36;2.60;;;1.95;;
74677;SDS011;63207;56.328;43.994;2022-12-24T12:36:57;2.67;;;2.03;;
74677;SDS011;63207;56.328;43.994;2022-12-24T12:39:30;2.33;;;2.00;;
74677;SDS011;63207;56.328;43.994;2022-12-24T12:42:06;2.78;;;1.92;;
74677;SDS011;63207;56.328;43.994;2022-12-24T12:58:09;2.85;;;2.20;;
74677;SDS011;63207;56.328;43.994;2022-12-24T13:00:43;2.70;;;2.00;;
74677;SDS011;63207;56.328;43.994;2022-12-24T13:20:26;6.28;;;3.45;;
74677;SDS011;63207;56.328;43.994;2022-12-24T13:25:23;9.35;;;3.88;;
74677;SDS011;63207;56.328;43.994;2022-12-24T13:27:54;4.93;;;3.20;;
74677;SDS011;63207;56.328;43.994;2022-12-24T13:30:38;4.38;;;3.30;;
74677;SDS011;63207;56.328;43.994;2022-12-24T13:33:09;6.93;;;3.45;;
74677;SDS011;63207;56.328;43.994;2022-12-24T13:35:38;6.25;;;3.63;;
74677;SDS011;63207;56.328;43.994;2022-12-24T13:40:51;5.72;;;3.38;;
74677;SDS011;63207;56.328;43.994;2022-12-24T13:43:17;6.32;;;3.55;;
74677;SDS011;63207;56.328;43.994;2022-12-24T13:45:43;4.57;;;3.00;;
74677;SDS011;63207;56.328;43.994;2022-12-24T13:51:18;5.50;;;3.55;;
74677;SDS011;63207;56.328;43.994;2022-12-24T13:53:49;6.57;;;3.33;;
74677;SDS011;63207;56.328;43.994;2022-12-24T13:56:26;5.15;;;3.17;;
74677;SDS011;63207;56.328;43.994;2022-12-24T13:59:09;5.80;;;3.03;;
74677;SDS011;63207;56.328;43.994;2022-12-24T14:01:53;4.28;;;2.88;;
74677;SDS011;63207;56.328;43.994;2022-12-24T14:04:25;5.68;;;3.33;;
74677;SDS011;63207;56.328;43.994;2022-12-24T14:06:54;4.70;;;3.03;;
74677;SDS011;63207;56.328;43.994;2022-12-24T14:09:46;7.05;;;3.58;;
74677;SDS011;63207;56.328;43.994;2022-12-24T14:12:29;5.97;;;2.95;;
74677;SDS011;63207;56.328;43.994;2022-12-24T14:14:55;5.18;;;3.13;;
74677;SDS011;63207;56.328;43.994;2022-12-24T14:17:25;6.00;;;3.35;;
74677;SDS011;63207;56.328;43.994;2022-12-24T14:19:55;5.85;;;3.35;;
74677;SDS011;63207;56.328;43.994;2022-12-24T14:22:27;4.97;;;3.03;;
74677;SDS011;63207;56.328;43.994;2022-12-24T14:25:17;4.72;;;3.20;;
74677;SDS011;63207;56.328;43.994;2022-12-24T14:30:25;6.63;;;3.50;;
74677;SDS011;63207;56.328;43.994;2022-12-24T14:32:55;4.90;;;3.05;;
74677;SDS011;63207;56.328;43.994;2022-12-24T14:38:13;3.70;;;2.85;;
74677;SDS011;63207;56.328;43.994;2022-12-24T14:40:53;4.45;;;2.92;;
74677;SDS011;63207;56.328;43.994;2022-12-24T14:46:37;3.65;;;2.72;;
74677;SDS011;63207;56.328;43.994;2022-12-24T14:54:53;4.55;;;3.00;;
74677;SDS011;63207;56.328;43.994;2022-12-24T14:57:23;4.38;;;3.00;;
74677;SDS011;63207;56.328;43.994;2022-12-24T15:00:17;5.65;;;2.78;;
74677;SDS011;63207;56.328;43.994;2022-12-24T15:02:45;4.75;;;3.25;;
74677;SDS011;63207;56.328;43.994;2022-12-24T15:05:24;4.13;;;3.00;;
74677;SDS011;63207;56.328;43.994;2022-12-24T15:07:57;4.70;;;3.03;;
74677;SDS011;63207;56.328;43.994;2022-12-24T15:13:05;6.10;;;3.38;;
74677;SDS011;63207;56.328;43.994;2022-12-24T15:15:37;4.67;;;3.10;;
74677;SDS011;63207;56.328;43.994;2022-12-24T15:18:09;5.88;;;3.35;;
74677;SDS011;63207;56.328;43.994;2022-12-24T15:20:41;4.93;;;2.83;;
74677;SDS011;63207;56.328;43.994;2022-12-24T15:23:17;6.10;;;3.13;;
74677;SDS011;63207;56.328;43.994;2022-12-24T15:26:38;5.20;;;3.13;;
74677;SDS011;63207;56.328;43.994;2022-12-24T15:28:44;5.80;;;3.28;;
74677;SDS011;63207;56.328;43.994;2022-12-24T15:31:14;7.32;;;3.33;;
74677;SDS011;63207;56.328;43.994;2022-12-24T15:33:46;4.35;;;2.80;;
74677;SDS011;63207;56.328;43.994;2022-12-24T15:36:13;4.35;;;3.08;;
74677;SDS011;63207;56.328;43.994;2022-12-24T15:38:43;4.53;;;2.72;;
74677;SDS011;63207;56.328;43.994;2022-12-24T15:41:16;4.60;;;3.10;;
74677;SDS011;63207;56.328;43.994;2022-12-24T15:43:45;4.32;;;2.55;;
74677;SDS011;63207;56.328;43.994;2022-12-24T15:46:16;4.07;;;3.00;;
74677;SDS011;63207;56.328;43.994;2022-12-24T15:48:47;5.13;;;3.00;;
74677;SDS011;63207;56.328;43.994;2022-12-24T15:51:19;4.35;;;3.10;;
74677;SDS011;63207;56.328;43.994;2022-12-24T15:53:53;4.50;;;2.83;;
74677;SDS011;63207;56.328;43.994;2022-12-24T15:59:10;5.22;;;3.13;;
74677;SDS011;63207;56.328;43.994;2022-12-24T16:01:51;4.88;;;3.00;;
74677;SDS011;63207;56.328;43.994;2022-12-24T16:04:27;4.20;;;2.72;;
74677;SDS011;63207;56.328;43.994;2022-12-24T16:06:57;3.47;;;2.70;;
74677;SDS011;63207;56.328;43.994;2022-12-24T16:09:31;4.10;;;3.10;;
74677;SDS011;63207;56.328;43.994;2022-12-24T16:12:00;4.70;;;3.28;;
74677;SDS011;63207;56.328;43.994;2022-12-24T16:14:27;4.43;;;2.90;;
74677;SDS011;63207;56.328;43.994;2022-12-24T16:16:54;4.35;;;2.65;;
74677;SDS011;63207;56.328;43.994;2022-12-24T16:19:33;4.70;;;3.13;;
74677;SDS011;63207;56.328;43.994;2022-12-24T16:22:00;4.97;;;2.97;;
74677;SDS011;63207;56.328;43.994;2022-12-24T16:24:47;3.92;;;2.90;;
74677;SDS011;63207;56.328;43.994;2022-12-24T16:27:13;3.80;;;2.80;;
74677;SDS011;63207;56.328;43.994;2022-12-24T16:29:39;4.80;;;2.80;;
74677;SDS011;63207;56.328;43.994;2022-12-24T16:32:05;3.88;;;2.78;;
74677;SDS011;63207;56.328;43.994;2022-12-24T16:34:31;4.38;;;2.83;;
74677;SDS011;63207;56.328;43.994;2022-12-24T16:36:57;5.10;;;2.85;;
74677;SDS011;63207;56.328;43.994;2022-12-24T16:39:25;4.55;;;2.80;;
74677;SDS011;63207;56.328;43.994;2022-12-24T16:41:56;4.50;;;3.03;;
74677;SDS011;63207;56.328;43.994;2022-12-24T16:44:42;4.18;;;3.03;;
74677;SDS011;63207;56.328;43.994;2022-12-24T16:47:32;3.85;;;2.50;;
74677;SDS011;63207;56.328;43.994;2022-12-24T16:50:00;3.75;;;2.75;;